Time;durP1;ratioP1;P1;durP2;ratioP2;P2;SDS_P1;SDS_P2;PMS_P1;PMS_P2;Temp;Humidity;BMP_temperature;BMP_pressure;BME280_temperature;BME280_humidity;BME280_pressure;Samples;Min_cycle;Max_cycle;Signal;HPM_P1;HPM_P2
2022/03/24 00:01:49;;;;;;;31.17;16.17;;;;;;;-0.66;89.09;102338.66;4973977;28;20056;-77
2022/03/24 00:04:21;;;;;;;35.20;17.37;;;;;;;-0.71;88.93;102330.63;4962137;28;20051;-76
2022/03/24 00:06:48;;;;;;;33.10;16.97;;;;;;;-0.78;90.11;102338.91;4970922;28;20109;-77
2022/03/24 00:09:21;;;;;;;30.93;16.77;;;;;;;-0.82;89.66;102325.69;4956476;28;20453;-77
2022/03/24 00:11:48;;;;;;;38.43;18.67;;;;;;;-0.72;89.39;102328.84;4948863;28;20046;-77
2022/03/24 00:14:16;;;;;;;34.20;17.13;;;;;;;-0.63;88.71;102336.22;4987485;28;20038;-76
2022/03/24 00:16:55;;;;;;;37.20;18.77;;;;;;;-0.76;89.37;102324.28;4979086;28;20133;-76
2022/03/24 00:19:22;;;;;;;36.53;18.13;;;;;;;-0.74;90.18;102329.59;4955695;28;20097;-76
2022/03/24 00:21:50;;;;;;;37.43;19.43;;;;;;;-0.82;90.26;102329.19;4988222;28;20046;-76
2022/03/24 00:24:16;;;;;;;36.30;19.13;;;;;;;-0.82;90.64;102336.09;4972447;28;20100;-75
2022/03/24 00:26:46;;;;;;;39.00;18.33;;;;;;;-0.88;90.77;102336.63;4957105;28;20046;-77
2022/03/24 00:29:13;;;;;;;37.07;18.30;;;;;;;-0.98;91.33;102335.25;4956328;28;20564;-76
2022/03/24 00:31:43;;;;;;;33.03;17.77;;;;;;;-1.00;91.82;102330.81;4956530;28;20035;-78
2022/03/24 00:34:11;;;;;;;38.87;18.97;;;;;;;-0.91;91.19;102331.31;4960835;28;20137;-75
2022/03/24 00:36:47;;;;;;;30.83;16.70;;;;;;;-1.02;92.30;102335.00;4954365;28;20046;-76
2022/03/24 00:39:19;;;;;;;31.43;17.20;;;;;;;-1.18;92.91;102322.91;4954624;28;20043;-76
2022/03/24 00:41:47;;;;;;;38.10;19.13;;;;;;;-1.21;92.67;102326.25;4957349;28;20053;-75
2022/03/24 00:44:19;;;;;;;39.30;18.97;;;;;;;-1.20;93.20;102330.63;4971420;28;20903;-76
2022/03/24 00:46:46;;;;;;;36.67;18.40;;;;;;;-1.17;92.86;102323.03;4974100;28;20100;-77
2022/03/24 00:49:13;;;;;;;37.60;18.93;;;;;;;-1.20;93.50;102325.44;4955716;28;20572;-76
2022/03/24 00:51:39;;;;;;;38.63;19.40;;;;;;;-1.26;94.36;102324.19;4969106;28;20049;-78
2022/03/24 00:54:07;;;;;;;39.30;18.07;;;;;;;-1.31;93.92;102329.16;4992130;28;20081;-76
2022/03/24 00:56:34;;;;;;;36.90;19.13;;;;;;;-1.30;94.52;102330.94;4950585;28;20049;-76
2022/03/24 00:59:01;;;;;;;39.40;19.40;;;;;;;-1.42;94.66;102326.00;4973148;28;20034;-76
2022/03/24 01:01:27;;;;;;;37.10;18.97;;;;;;;-1.42;94.83;102325.09;4974726;28;20051;-75
2022/03/24 01:03:56;;;;;;;40.57;19.57;;;;;;;-1.37;94.86;102326.22;4973106;28;20045;-77
2022/03/24 01:06:26;;;;;;;39.90;20.77;;;;;;;-1.42;95.11;102322.50;4942969;28;20097;-77
2022/03/24 01:08:53;;;;;;;39.30;20.33;;;;;;;-1.48;95.40;102327.34;4990251;28;20493;-76
2022/03/24 01:11:20;;;;;;;35.17;20.27;;;;;;;-1.54;96.57;102322.72;4974575;28;20050;-77
2022/03/24 01:14:05;;;;;;;41.73;20.47;;;;;;;-1.57;96.23;102317.38;4977494;28;20721;-77
2022/03/24 01:16:40;;;;;;;44.87;21.27;;;;;;;-1.56;96.84;102321.75;4979547;28;20486;-77
2022/03/24 01:19:06;;;;;;;41.83;21.13;;;;;;;-1.50;96.61;102316.00;4979716;28;20525;-77
2022/03/24 01:21:37;;;;;;;41.23;19.87;;;;;;;-1.55;96.24;102313.16;4975125;28;20097;-76
2022/03/24 01:24:04;;;;;;;42.40;20.37;;;;;;;-1.65;97.25;102316.06;4944832;28;20042;-76
2022/03/24 01:26:31;;;;;;;39.70;19.67;;;;;;;-1.67;98.11;102317.69;4960938;28;20138;-76
2022/03/24 01:28:59;;;;;;;43.83;21.53;;;;;;;-1.72;99.02;102311.34;4976418;28;20041;-77
2022/03/24 01:31:26;;;;;;;40.50;21.17;;;;;;;-1.74;98.66;102308.66;4975458;28;20053;-76
2022/03/24 01:33:53;;;;;;;41.07;20.30;;;;;;;-1.78;98.95;102313.56;4959202;28;20050;-76
2022/03/24 01:36:20;;;;;;;41.53;20.03;;;;;;;-1.77;99.36;102305.00;4978535;28;20453;-76
2022/03/24 01:38:46;;;;;;;38.97;20.20;;;;;;;-1.80;98.78;102318.66;5001501;28;20045;-76
2022/03/24 01:41:13;;;;;;;41.43;19.53;;;;;;;-1.86;99.09;102314.84;4960710;28;20046;-76
2022/03/24 01:43:40;;;;;;;45.10;20.33;;;;;;;-1.90;99.89;102323.25;4975038;28;20042;-77
2022/03/24 01:46:10;;;;;;;39.90;19.37;;;;;;;-1.95;100.00;102314.31;4961528;28;20042;-76
2022/03/24 01:48:40;;;;;;;47.60;22.67;;;;;;;-2.00;100.00;102314.97;4958973;28;21821;-77
2022/03/24 01:51:07;;;;;;;41.83;21.40;;;;;;;-1.98;100.00;102317.66;4960682;28;20077;-76
2022/03/24 01:53:36;;;;;;;42.33;20.70;;;;;;;-2.02;100.00;102318.25;4975090;28;20132;-76
2022/03/24 01:56:03;;;;;;;45.13;20.60;;;;;;;-2.10;100.00;102316.94;4976266;28;20568;-76
2022/03/24 01:58:30;;;;;;;39.20;20.13;;;;;;;-2.09;100.00;102317.03;4991209;28;20050;-77
2022/03/24 02:01:25;;;;;;;42.97;21.03;;;;;;;-2.10;100.00;102317.84;4976432;28;20054;-76
2022/03/24 02:03:54;;;;;;;43.23;20.07;;;;;;;-2.20;100.00;102312.94;4970006;28;20093;-77
2022/03/24 02:06:21;;;;;;;44.03;20.23;;;;;;;-2.30;100.00;102311.50;4982629;28;20506;-76
2022/03/24 02:08:48;;;;;;;38.07;18.63;;;;;;;-2.32;100.00;102318.28;4975014;28;20183;-76
2022/03/24 02:11:14;;;;;;;44.77;19.83;;;;;;;-2.38;100.00;102317.03;4943723;28;20105;-76
2022/03/24 02:13:41;;;;;;;44.20;20.80;;;;;;;-2.37;100.00;102311.06;4974430;28;20042;-76
2022/03/24 02:16:11;;;;;;;41.70;21.33;;;;;;;-2.44;100.00;102306.31;4993781;28;20050;-76
2022/03/24 02:18:38;;;;;;;44.10;21.50;;;;;;;-2.46;100.00;102321.75;4970838;28;20027;-77
2022/03/24 02:21:05;;;;;;;41.70;20.20;;;;;;;-2.51;100.00;102315.44;4965391;28;20042;-76
2022/03/24 02:23:32;;;;;;;39.13;19.47;;;;;;;-2.58;100.00;102318.47;4974636;28;20100;-77
2022/03/24 02:26:00;;;;;;;36.33;19.33;;;;;;;-2.62;100.00;102317.38;4975039;28;20050;-76
2022/03/24 02:28:27;;;;;;;40.70;18.97;;;;;;;-2.63;100.00;102325.06;4957625;28;20153;-76
2022/03/24 02:30:54;;;;;;;38.73;18.20;;;;;;;-2.65;100.00;102319.78;4959460;28;20058;-76
2022/03/24 02:33:23;;;;;;;38.03;18.53;;;;;;;-2.65;100.00;102316.31;4990993;28;20125;-77
2022/03/24 02:35:51;;;;;;;39.97;19.13;;;;;;;-2.64;100.00;102325.88;4958926;28;20461;-76
2022/03/24 02:38:21;;;;;;;44.27;20.93;;;;;;;-2.68;99.97;102323.91;4959226;28;20046;-77
2022/03/24 02:40:49;;;;;;;43.67;21.53;;;;;;;-2.70;100.00;102325.50;4988760;28;20563;-77
2022/03/24 02:43:19;;;;;;;36.87;19.07;;;;;;;-2.73;100.00;102321.03;4973637;28;20513;-77
2022/03/24 02:45:50;;;;;;;41.67;20.63;;;;;;;-2.70;99.80;102320.31;4961687;28;20041;-77
2022/03/24 02:48:17;;;;;;;43.47;21.13;;;;;;;-2.71;99.78;102327.19;4957706;28;20047;-77
2022/03/24 02:50:46;;;;;;;45.77;22.07;;;;;;;-2.70;99.74;102321.22;4975331;28;20049;-77
2022/03/24 02:53:13;;;;;;;42.70;20.87;;;;;;;-2.67;100.00;102325.69;4946829;28;20046;-77
2022/03/24 02:55:39;;;;;;;39.10;19.33;;;;;;;-2.75;100.00;102324.34;4973194;28;20050;-76
2022/03/24 02:58:06;;;;;;;40.40;19.37;;;;;;;-2.72;100.00;102321.91;4988585;28;20714;-78
2022/03/24 03:00:38;;;;;;;45.60;21.17;;;;;;;-2.77;100.00;102323.38;4990395;28;20038;-77
2022/03/24 03:03:05;;;;;;;51.73;20.47;;;;;;;-2.83;100.00;102324.78;4954388;28;20053;-78
2022/03/24 03:05:32;;;;;;;45.97;19.80;;;;;;;-2.88;100.00;102333.03;4991389;28;20558;-77
2022/03/24 03:07:58;;;;;;;45.20;21.47;;;;;;;-2.83;100.00;102326.47;4958837;28;20049;-77
2022/03/24 03:10:25;;;;;;;39.87;21.03;;;;;;;-2.81;100.00;102327.44;4979828;28;20050;-77
2022/03/24 03:12:52;;;;;;;38.47;20.03;;;;;;;-2.83;100.00;102319.59;4958020;28;20062;-77
2022/03/24 03:15:18;;;;;;;49.70;24.53;;;;;;;-2.84;100.00;102319.50;4988585;28;20042;-77
2022/03/24 03:17:47;;;;;;;47.73;23.07;;;;;;;-2.81;100.00;102332.63;4986752;28;20039;-77
2022/03/24 03:20:14;;;;;;;45.23;23.37;;;;;;;-2.85;100.00;102321.22;4986491;28;20042;-78
2022/03/24 03:22:43;;;;;;;50.03;22.70;;;;;;;-2.82;100.00;102320.47;4970569;28;20042;-77
2022/03/24 03:25:10;;;;;;;46.80;21.23;;;;;;;-2.88;100.00;102326.16;4973336;28;20043;-77
2022/03/24 03:27:37;;;;;;;44.83;21.33;;;;;;;-2.97;100.00;102320.44;4975658;28;20100;-77
2022/03/24 03:30:07;;;;;;;45.67;23.47;;;;;;;-2.96;100.00;102329.09;5003131;28;20089;-77
2022/03/24 03:32:35;;;;;;;44.57;22.97;;;;;;;-2.93;100.00;102335.38;4958484;28;20038;-77
2022/03/24 03:35:02;;;;;;;48.93;23.70;;;;;;;-2.99;100.00;102331.50;4974240;28;20053;-77
2022/03/24 03:37:29;;;;;;;46.27;23.43;;;;;;;-2.99;100.00;102322.06;4974357;28;20061;-77
2022/03/24 03:39:55;;;;;;;44.93;21.97;;;;;;;-2.97;100.00;102333.38;4957985;28;20679;-77
2022/03/24 03:42:23;;;;;;;41.10;21.43;;;;;;;-3.05;100.00;102321.66;4974122;28;20077;-77
2022/03/24 03:44:50;;;;;;;49.70;23.23;;;;;;;-3.05;100.00;102326.84;4957795;28;20042;-77
2022/03/24 03:47:17;;;;;;;52.57;24.83;;;;;;;-2.98;100.00;102325.53;4961219;28;20058;-77
2022/03/24 03:49:43;;;;;;;49.70;23.70;;;;;;;-3.01;100.00;102320.19;4973828;28;20034;-77
2022/03/24 03:52:25;;;;;;;52.73;24.43;;;;;;;-3.07;100.00;102323.28;4960126;28;20418;-78
2022/03/24 03:54:52;;;;;;;52.67;24.43;;;;;;;-3.07;100.00;102319.81;4957418;28;20050;-77
2022/03/24 03:57:18;;;;;;;48.97;23.33;;;;;;;-3.10;100.00;102324.78;4974435;28;20051;-77
2022/03/24 03:59:45;;;;;;;47.57;21.83;;;;;;;-3.14;100.00;102319.41;4939706;28;20104;-77
2022/03/24 04:02:12;;;;;;;42.27;21.80;;;;;;;-3.17;100.00;102320.94;4989377;28;20089;-77
2022/03/24 04:04:39;;;;;;;51.23;24.47;;;;;;;-3.19;100.00;102319.97;4969933;28;20046;-77
2022/03/24 04:07:05;;;;;;;47.97;22.80;;;;;;;-3.27;100.00;102319.47;4957812;28;20042;-77
2022/03/24 04:09:32;;;;;;;46.60;23.40;;;;;;;-3.26;100.00;102328.13;4957250;28;20576;-77
2022/03/24 04:11:59;;;;;;;47.57;24.07;;;;;;;-3.24;100.00;102321.34;4957674;28;20049;-77
2022/03/24 04:14:25;;;;;;;46.63;20.83;;;;;;;-3.27;100.00;102316.91;4971995;28;20042;-77
2022/03/24 04:16:56;;;;;;;47.33;23.50;;;;;;;-3.30;100.00;102316.69;5003153;28;20041;-78
2022/03/24 04:19:24;;;;;;;42.30;19.27;;;;;;;-3.41;100.00;102325.47;4972921;28;20043;-77
2022/03/24 04:21:51;;;;;;;44.07;20.47;;;;;;;-3.45;100.00;102321.81;4957816;28;20046;-77
2022/03/24 04:24:18;;;;;;;49.33;22.20;;;;;;;-3.49;100.00;102319.81;4972756;28;20050;-78
2022/03/24 04:26:45;;;;;;;43.93;23.43;;;;;;;-3.57;100.00;102312.38;4991143;28;20105;-77
2022/03/24 04:29:11;;;;;;;46.60;21.10;;;;;;;-3.57;100.00;102314.97;4961573;28;20050;-78
2022/03/24 04:31:39;;;;;;;47.97;21.33;;;;;;;-3.57;100.00;102315.88;4947592;28;20051;-77
2022/03/24 04:34:06;;;;;;;40.07;21.87;;;;;;;-3.56;100.00;102315.06;4961916;28;20049;-77
2022/03/24 04:36:33;;;;;;;48.10;24.23;;;;;;;-3.44;100.00;102317.53;4955814;28;20047;-78
2022/03/24 04:39:01;;;;;;;43.93;22.20;;;;;;;-3.42;100.00;102316.81;4988986;28;20038;-78
2022/03/24 04:41:31;;;;;;;46.43;24.60;;;;;;;-3.40;100.00;102312.63;4957090;28;20078;-78
2022/03/24 04:43:58;;;;;;;48.77;23.57;;;;;;;-3.45;100.00;102311.47;4973134;28;20045;-77
2022/03/24 04:46:25;;;;;;;46.33;22.40;;;;;;;-3.43;100.00;102312.47;4963877;28;20053;-78
2022/03/24 04:48:53;;;;;;;46.50;24.70;;;;;;;-3.46;100.00;102320.00;4977497;28;20142;-77
2022/03/24 04:51:19;;;;;;;49.03;24.33;;;;;;;-3.48;100.00;102319.03;4952867;28;20053;-78
2022/03/24 04:53:46;;;;;;;49.53;22.87;;;;;;;-3.52;100.00;102322.22;4988990;28;20579;-78
2022/03/24 04:56:13;;;;;;;50.73;22.93;;;;;;;-3.49;100.00;102313.75;4961181;28;20583;-78
2022/03/24 04:58:39;;;;;;;48.40;24.10;;;;;;;-3.44;100.00;102310.69;4959006;28;20038;-78
2022/03/24 05:01:06;;;;;;;50.00;24.10;;;;;;;-3.55;100.00;102311.69;4976074;28;20097;-78
2022/03/24 05:03:33;;;;;;;49.27;23.53;;;;;;;-3.51;100.00;102312.78;4957317;28;20073;-78
2022/03/24 05:06:00;;;;;;;45.93;23.27;;;;;;;-3.53;100.00;102314.34;4948612;28;20085;-78
2022/03/24 05:08:26;;;;;;;52.80;23.93;;;;;;;-3.54;100.00;102309.97;4985285;28;20073;-78
2022/03/24 05:10:53;;;;;;;45.87;23.97;;;;;;;-3.45;100.00;102307.97;4977453;28;20097;-78
2022/03/24 05:13:19;;;;;;;49.70;24.00;;;;;;;-3.43;100.00;102317.63;4992469;28;20068;-78
2022/03/24 05:15:46;;;;;;;49.93;23.27;;;;;;;-3.49;100.00;102317.25;4955080;28;20074;-78
2022/03/24 05:18:13;;;;;;;52.30;24.17;;;;;;;-3.47;100.00;102313.06;4989581;28;20846;-78
2022/03/24 05:20:40;;;;;;;50.07;22.53;;;;;;;-3.48;100.00;102308.69;4993790;28;20042;-78
2022/03/24 05:23:08;;;;;;;54.23;24.50;;;;;;;-3.42;100.00;102310.78;4976774;28;20038;-78
2022/03/24 05:25:34;;;;;;;47.67;23.90;;;;;;;-3.43;100.00;102315.03;4977769;28;20068;-78
2022/03/24 05:28:04;;;;;;;45.17;23.27;;;;;;;-3.50;100.00;102312.88;4993533;28;20607;-78
2022/03/24 05:30:30;;;;;;;43.73;21.67;;;;;;;-3.48;100.00;102316.44;4976537;28;20457;-78
2022/03/24 05:32:57;;;;;;;49.17;23.97;;;;;;;-3.40;100.00;102315.22;4990804;28;20038;-78
2022/03/24 05:35:23;;;;;;;50.80;22.77;;;;;;;-3.37;100.00;102311.03;4990886;28;20448;-78
2022/03/24 05:37:50;;;;;;;47.37;23.87;;;;;;;-3.34;100.00;102313.84;4962085;28;20042;-78
2022/03/24 05:40:17;;;;;;;48.53;23.40;;;;;;;-3.32;100.00;102307.94;4976370;28;20054;-78
2022/03/24 05:42:44;;;;;;;45.47;23.57;;;;;;;-3.34;100.00;102313.84;4976224;28;20038;-77
2022/03/24 05:45:10;;;;;;;47.90;22.97;;;;;;;-3.34;100.00;102313.84;4983906;28;20042;-76
2022/03/24 05:47:37;;;;;;;46.53;22.10;;;;;;;-3.35;100.00;102312.94;4932940;28;20105;-77
2022/03/24 05:50:04;;;;;;;42.60;21.87;;;;;;;-3.32;100.00;102305.38;4963544;28;20039;-77
2022/03/24 05:52:31;;;;;;;47.07;22.67;;;;;;;-3.27;100.00;102311.72;4970870;28;20084;-77
2022/03/24 05:54:58;;;;;;;46.53;22.83;;;;;;;-3.19;100.00;102320.84;4981173;28;20498;-77
2022/03/24 05:57:25;;;;;;;45.60;21.90;;;;;;;-3.20;100.00;102319.03;4975806;28;20446;-77
2022/03/24 05:59:51;;;;;;;41.53;22.57;;;;;;;-3.18;100.00;102313.97;4999401;28;20093;-77
2022/03/24 06:02:20;;;;;;;46.27;23.87;;;;;;;-3.11;100.00;102318.72;4979404;28;20102;-76
2022/03/24 06:04:47;;;;;;;49.17;23.80;;;;;;;-3.07;100.00;102324.97;4982033;28;20041;-77
2022/03/24 06:07:14;;;;;;;44.97;22.87;;;;;;;-3.01;100.00;102318.50;4947781;28;20097;-77
2022/03/24 06:09:41;;;;;;;40.40;20.80;;;;;;;-2.92;100.00;102329.38;4972569;28;20062;-76
2022/03/24 06:12:13;;;;;;;44.97;22.60;;;;;;;-2.87;100.00;102324.47;4965612;28;20442;-77
2022/03/24 06:14:40;;;;;;;46.50;23.83;;;;;;;-2.80;100.00;102326.63;4939504;28;20114;-76
2022/03/24 06:17:07;;;;;;;47.63;23.33;;;;;;;-2.76;100.00;102328.63;4960162;28;20046;-77
2022/03/24 06:19:37;;;;;;;49.00;25.10;;;;;;;-2.69;100.00;102324.69;4959628;28;20109;-77
2022/03/24 06:22:04;;;;;;;41.83;23.70;;;;;;;-2.67;100.00;102331.75;4960926;28;20053;-76
2022/03/24 06:24:31;;;;;;;46.37;24.27;;;;;;;-2.63;100.00;102330.22;4987389;28;20051;-77
2022/03/24 06:26:58;;;;;;;43.60;24.93;;;;;;;-2.57;100.00;102333.19;4979105;28;20039;-77
2022/03/24 06:29:24;;;;;;;56.43;26.80;;;;;;;-2.53;100.00;102340.31;4952747;28;20047;-77
2022/03/24 06:31:51;;;;;;;49.60;26.03;;;;;;;-2.50;100.00;102332.75;4966381;28;20050;-77
2022/03/24 06:34:18;;;;;;;49.70;26.17;;;;;;;-2.40;100.00;102336.78;4965478;28;20098;-77
2022/03/24 06:36:45;;;;;;;46.47;25.07;;;;;;;-2.38;100.00;102333.47;4988534;28;20042;-77
2022/03/24 06:39:13;;;;;;;44.73;24.67;;;;;;;-2.36;100.00;102337.03;4955086;28;20073;-77
2022/03/24 06:41:39;;;;;;;51.00;25.53;;;;;;;-2.20;100.00;102337.94;4952898;28;20049;-77
2022/03/24 06:44:07;;;;;;;51.50;25.23;;;;;;;-2.10;100.00;102338.56;4941124;28;20090;-77
2022/03/24 06:46:35;;;;;;;48.93;25.53;;;;;;;-2.07;100.00;102336.13;4956848;28;20138;-77
2022/03/24 06:49:03;;;;;;;54.83;25.57;;;;;;;-1.94;100.00;102340.31;4966573;28;20105;-77
2022/03/24 06:51:30;;;;;;;52.03;24.53;;;;;;;-1.81;100.00;102344.50;4984202;28;20682;-77
2022/03/24 06:53:56;;;;;;;47.47;23.43;;;;;;;-1.68;100.00;102330.53;4974467;28;20074;-77
2022/03/24 06:56:23;;;;;;;52.80;25.10;;;;;;;-1.40;100.00;102335.56;4970989;28;20042;-77
2022/03/24 06:58:51;;;;;;;49.03;23.63;;;;;;;-0.87;100.00;102341.00;4961889;28;20070;-77
2022/03/24 07:01:18;;;;;;;46.80;22.60;;;;;;;-0.24;100.00;102326.97;4974361;28;20042;-77
2022/03/24 07:03:45;;;;;;;45.97;23.57;;;;;;;0.40;95.63;102339.59;4948222;28;20045;-77
2022/03/24 07:06:12;;;;;;;56.67;24.60;;;;;;;0.75;91.25;102331.72;4972192;28;20039;-77
2022/03/24 07:08:39;;;;;;;41.97;22.30;;;;;;;1.18;91.45;102333.69;4987287;28;20558;-77
2022/03/24 07:11:06;;;;;;;43.70;22.80;;;;;;;1.57;89.50;102331.94;4958754;28;20657;-77
2022/03/24 07:13:33;;;;;;;42.50;22.83;;;;;;;1.81;89.09;102339.00;4977990;28;20050;-78
2022/03/24 07:16:00;;;;;;;47.63;25.27;;;;;;;2.02;86.40;102337.31;4962981;28;20105;-78
2022/03/24 07:18:26;;;;;;;44.23;23.73;;;;;;;2.19;88.30;102331.06;4945413;28;20050;-78
2022/03/24 07:20:53;;;;;;;41.80;22.97;;;;;;;2.16;89.17;102330.91;4973036;28;20037;-78
2022/03/24 07:23:20;;;;;;;45.13;25.17;;;;;;;2.43;88.05;102338.06;4987291;28;20050;-78
2022/03/24 07:25:46;;;;;;;40.90;24.20;;;;;;;2.48;88.84;102333.94;4968733;28;20054;-78
2022/03/24 07:28:14;;;;;;;43.77;25.87;;;;;;;2.73;90.43;102321.00;4975944;28;20039;-78
2022/03/24 07:33:29;;;;;;;42.80;24.47;;;;;;;2.87;90.37;102331.06;5010198;28;20516;-79
2022/03/24 07:35:56;;;;;;;43.30;23.80;;;;;;;2.90;90.83;102324.25;4995756;28;20052;-79
2022/03/24 07:38:23;;;;;;;41.63;23.53;;;;;;;3.00;92.94;102328.06;4977307;28;20054;-79
2022/03/24 07:40:54;;;;;;;51.73;28.20;;;;;;;3.26;94.59;102329.91;4993866;28;20061;-79
2022/03/24 07:43:20;;;;;;;54.20;28.17;;;;;;;3.52;92.83;102320.38;4978267;28;20053;-80
2022/03/24 07:45:48;;;;;;;49.77;27.63;;;;;;;3.83;92.51;102326.66;4978646;28;20096;-79
2022/03/24 07:48:17;;;;;;;53.63;29.27;;;;;;;3.99;91.91;102322.84;4976650;28;20823;-80
2022/03/24 07:50:47;;;;;;;54.90;28.83;;;;;;;4.01;91.84;102326.38;4978837;28;20512;-79
2022/03/24 07:53:13;;;;;;;49.53;26.73;;;;;;;4.09;92.00;102331.03;4978321;28;20070;-80
2022/03/24 07:55:41;;;;;;;49.63;25.87;;;;;;;4.24;92.43;102322.78;4994008;28;20056;-81
2022/03/24 07:58:09;;;;;;;48.43;26.10;;;;;;;4.34;91.09;102323.97;4978329;28;20171;-80
2022/03/24 08:00:35;;;;;;;43.33;25.80;;;;;;;4.45;89.31;102320.84;4990698;28;20116;-77
2022/03/24 08:03:06;;;;;;;49.57;26.57;;;;;;;4.61;86.79;102321.31;4999913;28;20046;-81
2022/03/24 08:05:34;;;;;;;47.43;27.43;;;;;;;4.76;82.67;102320.06;4984736;28;20048;-82
2022/03/24 08:08:03;;;;;;;43.73;24.20;;;;;;;4.92;83.33;102318.78;4994553;28;20048;-81
2022/03/24 08:10:30;;;;;;;40.87;23.80;;;;;;;5.04;82.10;102324.38;4987451;28;20096;-82
2022/03/24 08:12:57;;;;;;;48.70;26.20;;;;;;;5.10;79.75;102321.03;4982952;28;20050;-80
2022/03/24 08:15:24;;;;;;;39.63;24.57;;;;;;;5.29;76.25;102323.31;5013184;28;20046;-80
2022/03/24 08:17:51;;;;;;;46.30;26.53;;;;;;;5.67;73.31;102314.72;5014185;28;20115;-81
2022/03/24 08:20:17;;;;;;;41.53;23.27;;;;;;;5.60;75.92;102319.78;5011178;28;20038;-82
2022/03/24 08:22:44;;;;;;;45.10;24.20;;;;;;;5.64;73.96;102321.66;4997363;28;20042;-80
2022/03/24 08:25:11;;;;;;;43.60;22.77;;;;;;;5.76;73.86;102315.84;4992040;28;20049;-81
2022/03/24 08:27:37;;;;;;;42.67;23.77;;;;;;;5.83;72.83;102324.75;4962379;28;20100;-81
2022/03/24 08:30:05;;;;;;;42.77;24.53;;;;;;;6.03;69.94;102313.06;4976940;28;20084;-82
2022/03/24 08:32:32;;;;;;;39.83;22.70;;;;;;;6.17;70.06;102322.16;4979498;28;20072;-83
2022/03/24 08:35:00;;;;;;;260.83;45.33;;;;;;;6.39;69.08;102322.66;4970937;28;20048;-83
2022/03/24 08:37:26;;;;;;;42.50;23.00;;;;;;;6.47;68.76;102311.50;4984543;28;20053;-82
2022/03/24 08:39:53;;;;;;;44.80;23.97;;;;;;;6.76;66.11;102325.25;4997772;28;20044;-83
2022/03/24 08:42:20;;;;;;;38.73;22.03;;;;;;;6.72;66.75;102318.16;4983355;28;20045;-80
2022/03/24 08:44:46;;;;;;;37.37;21.73;;;;;;;6.75;62.72;102327.88;4997540;28;20076;-81
2022/03/24 08:47:13;;;;;;;147.03;31.87;;;;;;;6.90;61.91;102333.44;4981607;28;20049;-85
2022/03/24 08:49:40;;;;;;;33.27;20.17;;;;;;;7.17;59.20;102327.00;4996890;28;20092;-83
2022/03/24 08:52:08;;;;;;;37.50;20.87;;;;;;;7.26;61.08;102338.56;4983141;28;20419;-82
2022/03/24 08:54:35;;;;;;;33.67;18.70;;;;;;;7.87;57.88;102331.81;4984794;28;20092;-82
2022/03/24 08:57:02;;;;;;;33.70;21.70;;;;;;;7.71;60.15;102331.50;4986716;28;20042;-82
2022/03/24 08:59:29;;;;;;;33.27;19.87;;;;;;;7.70;58.50;102335.00;4995657;28;20493;-81
2022/03/24 09:01:57;;;;;;;32.97;18.77;;;;;;;8.25;53.51;102331.56;4999913;28;20084;-83
2022/03/24 09:04:26;;;;;;;30.13;18.13;;;;;;;8.25;55.14;102333.31;4984167;28;20073;-84
2022/03/24 09:06:53;;;;;;;30.83;17.77;;;;;;;8.31;56.32;102323.75;4994196;28;20033;-82
2022/03/24 09:09:22;;;;;;;31.00;19.43;;;;;;;8.52;55.95;102328.50;4986467;28;20409;-80
2022/03/24 09:11:49;;;;;;;28.57;18.17;;;;;;;8.89;52.06;102331.63;4989349;28;20045;-80
2022/03/24 09:14:17;;;;;;;26.20;15.60;;;;;;;9.28;49.44;102320.72;4989066;28;20064;-80
2022/03/24 09:16:44;;;;;;;28.17;16.55;;;;;;;9.47;48.20;102327.94;4982123;28;20055;-83
2022/03/24 09:19:15;;;;;;;26.35;16.05;;;;;;;9.74;48.13;102327.34;4981670;28;20045;-84
2022/03/24 09:21:41;;;;;;;30.33;18.08;;;;;;;10.00;49.44;102318.75;5012646;28;20447;-81
2022/03/24 09:24:08;;;;;;;32.00;18.90;;;;;;;10.47;47.85;102320.91;4960605;28;20571;-83
2022/03/24 09:26:37;;;;;;;32.63;19.02;;;;;;;10.63;48.62;102323.66;4978412;28;20050;-84
2022/03/24 09:29:04;;;;;;;33.95;19.05;;;;;;;10.65;46.64;102323.66;4992250;28;20046;-80
2022/03/24 09:31:31;;;;;;;28.67;17.92;;;;;;;10.98;46.09;102322.97;4977272;28;20045;-82
2022/03/24 09:33:58;;;;;;;28.25;16.98;;;;;;;11.00;44.53;102322.09;4978649;28;20042;-81
2022/03/24 09:36:24;;;;;;;24.17;16.58;;;;;;;11.19;44.85;102325.72;4997133;28;20046;-84
2022/03/24 09:38:51;;;;;;;28.25;17.27;;;;;;;11.21;42.29;102321.28;4974543;28;20041;-81
2022/03/24 09:41:19;;;;;;;26.90;16.17;;;;;;;11.41;41.81;102321.34;5010361;28;20049;-81
2022/03/24 09:43:47;;;;;;;29.60;16.52;;;;;;;11.60;42.09;102313.44;4978953;28;20053;-82
2022/03/24 09:46:15;;;;;;;27.95;15.90;;;;;;;11.74;39.69;102315.22;4984533;28;20038;-84
2022/03/24 09:48:43;;;;;;;23.85;15.55;;;;;;;11.62;38.63;102315.22;4989550;28;20246;-82
2022/03/24 09:51:10;;;;;;;28.05;15.93;;;;;;;11.72;39.84;102310.81;4980246;28;20120;-80
2022/03/24 09:53:39;;;;;;;22.80;14.20;;;;;;;12.09;40.16;102314.41;4980279;28;20054;-83
2022/03/24 09:56:07;;;;;;;23.88;13.82;;;;;;;12.48;39.47;102317.91;4996594;28;20053;-80
2022/03/24 09:58:34;;;;;;;22.90;13.77;;;;;;;12.59;37.25;102322.28;4980430;28;20516;-82
2022/03/24 10:01:01;;;;;;;20.33;11.80;;;;;;;12.46;33.77;102314.38;5017245;28;20659;-80
2022/03/24 10:03:28;;;;;;;19.27;14.05;;;;;;;12.74;34.45;102320.47;4978154;28;20056;-83
2022/03/24 10:06:13;;;;;;;23.95;13.73;;;;;;;12.96;33.84;102315.09;5004364;28;20121;-85
2022/03/24 10:08:40;;;;;;;19.55;12.68;;;;;;;13.06;34.70;102317.72;4978057;28;20049;-82
2022/03/24 10:11:08;;;;;;;23.35;13.98;;;;;;;13.15;33.62;102312.38;4983395;28;20042;-81
2022/03/24 10:13:54;;;;;;;21.38;12.95;;;;;;;13.22;33.48;102316.81;4992484;28;20045;-81
2022/03/24 10:16:33;;;;;;;20.08;14.20;;;;;;;13.52;34.07;102305.97;4973080;28;20054;-81
2022/03/24 10:19:08;;;;;;;20.73;12.90;;;;;;;13.52;32.72;102303.31;4995223;28;20050;-80
2022/03/24 10:21:37;;;;;;;19.65;13.27;;;;;;;13.47;33.27;102304.28;5006870;28;20069;-81
2022/03/24 10:24:09;;;;;;;20.27;12.18;;;;;;;13.70;33.76;102301.44;4979102;28;20077;-84
2022/03/24 10:27:00;;;;;;;17.30;11.65;;;;;;;14.03;33.84;102293.19;4998231;28;20507;-83
2022/03/24 10:29:28;;;;;;;19.50;11.65;;;;;;;14.05;30.43;102295.88;4982427;28;20089;-79
2022/03/24 10:31:57;;;;;;;15.73;10.77;;;;;;;13.99;30.82;102291.47;4987720;28;20041;-80
2022/03/24 10:34:35;;;;;;;17.60;11.10;;;;;;;14.46;32.07;102298.16;4986249;28;20053;-80
2022/03/24 10:37:17;;;;;;;87.20;51.58;;;;;;;14.84;29.54;102296.84;4997773;28;20056;-80
2022/03/24 10:39:55;;;;;;;15.02;10.20;;;;;;;14.97;29.06;102286.94;4976617;28;20050;-80
2022/03/24 10:42:26;;;;;;;15.82;9.30;;;;;;;14.81;27.90;102284.47;4977091;28;20052;-80
2022/03/24 10:45:12;;;;;;;15.52;9.20;;;;;;;14.89;27.40;102289.69;4973348;28;20524;-84
2022/03/24 10:47:54;;;;;;;14.40;8.48;;;;;;;14.61;26.16;102282.03;5007735;28;20034;-83
2022/03/24 10:50:39;;;;;;;10.20;7.03;;;;;;;14.89;25.91;102282.59;4974459;28;20536;-83
2022/03/24 10:53:10;;;;;;;12.98;8.00;;;;;;;14.38;25.54;102278.72;4992236;28;20042;-80
2022/03/24 10:55:44;;;;;;;12.38;8.30;;;;;;;14.50;25.04;102275.94;4979233;28;20045;-81
2022/03/24 10:58:22;;;;;;;13.15;8.80;;;;;;;14.11;25.22;102284.28;4990769;28;20046;-83
2022/03/24 11:00:52;;;;;;;13.32;9.23;;;;;;;14.31;25.42;102275.22;4979349;28;20046;-82
2022/03/24 11:03:19;;;;;;;11.88;7.50;;;;;;;14.29;24.93;102278.78;4979902;28;20060;-80
2022/03/24 11:05:46;;;;;;;10.38;7.55;;;;;;;14.32;24.04;102273.47;4990733;28;20075;-80
2022/03/24 11:08:18;;;;;;;12.98;7.90;;;;;;;14.81;26.01;102272.94;4961218;28;20054;-82
2022/03/24 11:10:47;;;;;;;11.00;7.28;;;;;;;14.97;23.34;102268.31;4978229;28;20073;-81
2022/03/24 11:13:29;;;;;;;9.68;6.88;;;;;;;15.24;23.85;102259.94;4978272;28;20050;-81
2022/03/24 11:15:56;;;;;;;10.07;6.88;;;;;;;15.47;23.33;102256.94;4978946;28;20120;-83